sensor_id;sensor_type;location;lat;lon;timestamp;pressure;altitude;pressure_sealevel;temperature;humidity
43621;BME280;29213;50.770;7.298;2023-02-01T00:02:02;101339.88;;;5.90;61.83
43621;BME280;29213;50.770;7.298;2023-02-01T00:04:28;101336.91;;;5.95;61.48
43621;BME280;29213;50.770;7.298;2023-02-01T00:06:54;101335.19;;;5.94;61.49
43621;BME280;29213;50.770;7.298;2023-02-01T00:09:20;101340.38;;;5.95;61.56
43621;BME280;29213;50.770;7.298;2023-02-01T00:11:48;101334.72;;;5.88;61.43
43621;BME280;29213;50.770;7.298;2023-02-01T00:14:18;101347.13;;;5.99;61.45
43621;BME280;29213;50.770;7.298;2023-02-01T00:16:44;101346.16;;;6.00;61.48
43621;BME280;29213;50.770;7.298;2023-02-01T00:19:13;101340.88;;;6.00;61.42
43621;BME280;29213;50.770;7.298;2023-02-01T00:21:39;101343.53;;;6.00;61.44
43621;BME280;29213;50.770;7.298;2023-02-01T00:24:06;101337.28;;;6.01;61.27
43621;BME280;29213;50.770;7.298;2023-02-01T00:28:59;101345.56;;;5.97;61.23
43621;BME280;29213;50.770;7.298;2023-02-01T00:31:24;101340.00;;;5.88;61.22
43621;BME280;29213;50.770;7.298;2023-02-01T00:33:50;101307.84;;;5.70;61.57
43621;BME280;29213;50.770;7.298;2023-02-01T00:36:17;101338.53;;;5.84;61.53
43621;BME280;29213;50.770;7.298;2023-02-01T00:38:43;101324.03;;;5.66;61.42
43621;BME280;29213;50.770;7.298;2023-02-01T00:41:15;101336.47;;;5.76;61.62
43621;BME280;29213;50.770;7.298;2023-02-01T00:43:41;101348.22;;;5.72;61.42
43621;BME280;29213;50.770;7.298;2023-02-01T00:46:08;101336.38;;;5.54;61.74
43621;BME280;29213;50.770;7.298;2023-02-01T00:48:34;101291.66;;;5.26;62.25
43621;BME280;29213;50.770;7.298;2023-02-01T00:51:05;101326.13;;;5.49;62.24
43621;BME280;29213;50.770;7.298;2023-02-01T00:53:31;101328.44;;;5.54;61.96
43621;BME280;29213;50.770;7.298;2023-02-01T00:55:58;101339.78;;;5.43;61.87
43621;BME280;29213;50.770;7.298;2023-02-01T00:58:24;101338.25;;;5.27;61.86
43621;BME280;29213;50.770;7.298;2023-02-01T01:01:11;101330.47;;;5.13;62.12
43621;BME280;29213;50.770;7.298;2023-02-01T01:03:43;101335.25;;;5.07;61.72
43621;BME280;29213;50.770;7.298;2023-02-01T01:06:17;101333.72;;;5.16;62.16
43621;BME280;29213;50.770;7.298;2023-02-01T01:08:43;101338.59;;;5.09;61.22
43621;BME280;29213;50.770;7.298;2023-02-01T01:11:14;101334.91;;;5.12;61.43
43621;BME280;29213;50.770;7.298;2023-02-01T01:13:40;101274.53;;;4.57;60.50
43621;BME280;29213;50.770;7.298;2023-02-01T01:16:07;101330.59;;;4.98;61.40
43621;BME280;29213;50.770;7.298;2023-02-01T01:18:33;101312.19;;;5.09;61.32
43621;BME280;29213;50.770;7.298;2023-02-01T01:20:59;101283.69;;;4.77;60.66
43621;BME280;29213;50.770;7.298;2023-02-01T01:23:26;101302.94;;;5.04;59.97
43621;BME280;29213;50.770;7.298;2023-02-01T01:25:52;101260.44;;;4.82;60.29
43621;BME280;29213;50.770;7.298;2023-02-01T01:28:17;101287.66;;;4.83;59.95
43621;BME280;29213;50.770;7.298;2023-02-01T01:30:43;101224.25;;;4.59;59.69
43621;BME280;29213;50.770;7.298;2023-02-01T01:33:09;101294.78;;;5.07;59.43
43621;BME280;29213;50.770;7.298;2023-02-01T01:35:34;101204.78;;;4.35;58.78
43621;BME280;29213;50.770;7.298;2023-02-01T01:38:00;101305.16;;;4.97;59.54
43621;BME280;29213;50.770;7.298;2023-02-01T01:40:27;101249.28;;;4.66;58.46
43621;BME280;29213;50.770;7.298;2023-02-01T01:42:53;101295.00;;;5.04;58.76
43621;BME280;29213;50.770;7.298;2023-02-01T01:45:28;101317.00;;;4.91;58.07
43621;BME280;29213;50.770;7.298;2023-02-01T01:47:59;101280.94;;;4.66;58.03
43621;BME280;29213;50.770;7.298;2023-02-01T01:50:30;101297.81;;;4.76;58.14
43621;BME280;29213;50.770;7.298;2023-02-01T01:52:59;101331.25;;;5.02;58.14
43621;BME280;29213;50.770;7.298;2023-02-01T01:55:27;101291.47;;;4.79;58.10
43621;BME280;29213;50.770;7.298;2023-02-01T01:58:00;101329.00;;;5.08;58.11
43621;BME280;29213;50.770;7.298;2023-02-01T02:00:27;101239.16;;;4.60;57.67
43621;BME280;29213;50.770;7.298;2023-02-01T02:03:00;101304.66;;;4.79;57.70
43621;BME280;29213;50.770;7.298;2023-02-01T02:05:29;101328.53;;;4.90;56.89
43621;BME280;29213;50.770;7.298;2023-02-01T02:07:58;101315.44;;;4.89;57.26
43621;BME280;29213;50.770;7.298;2023-02-01T02:10:24;101218.41;;;4.29;57.50
43621;BME280;29213;50.770;7.298;2023-02-01T02:13:10;101256.34;;;4.52;56.86
43621;BME280;29213;50.770;7.298;2023-02-01T02:15:50;101200.31;;;4.36;57.48
43621;BME280;29213;50.770;7.298;2023-02-01T02:18:34;101146.78;;;4.09;57.64
43621;BME280;29213;50.770;7.298;2023-02-01T02:24:57;101261.38;;;4.81;57.08
43621;BME280;29213;50.770;7.298;2023-02-01T02:41:10;101282.09;;;5.12;57.08
43621;BME280;29213;50.770;7.298;2023-02-01T02:43:46;101276.38;;;5.18;56.76
43621;BME280;29213;50.770;7.298;2023-02-01T02:46:47;101249.09;;;4.93;56.92
43621;BME280;29213;50.770;7.298;2023-02-01T02:49:41;101208.09;;;4.76;56.87
43621;BME280;29213;50.770;7.298;2023-02-01T02:52:29;101153.88;;;4.46;56.66
43621;BME280;29213;50.770;7.298;2023-02-01T02:55:25;101158.00;;;4.50;56.65
43621;BME280;29213;50.770;7.298;2023-02-01T02:57:52;101250.78;;;4.94;56.69
43621;BME280;29213;50.770;7.298;2023-02-01T03:00:37;101226.69;;;4.75;56.64
43621;BME280;29213;50.770;7.298;2023-02-01T03:03:21;101247.88;;;4.73;56.81
43621;BME280;29213;50.770;7.298;2023-02-01T03:06:13;101266.66;;;4.81;57.54
43621;BME280;29213;50.770;7.298;2023-02-01T03:08:41;101252.00;;;4.38;57.26
43621;BME280;29213;50.770;7.298;2023-02-01T03:11:12;101256.34;;;4.52;57.91
43621;BME280;29213;50.770;7.298;2023-02-01T03:16:21;101203.38;;;4.42;58.32
43621;BME280;29213;50.770;7.298;2023-02-01T03:19:14;101235.22;;;4.78;57.80
43621;BME280;29213;50.770;7.298;2023-02-01T03:21:45;101129.38;;;4.20;57.47
43621;BME280;29213;50.770;7.298;2023-02-01T03:24:43;101251.75;;;4.93;57.88
43621;BME280;29213;50.770;7.298;2023-02-01T03:27:24;101133.34;;;4.25;57.43
43621;BME280;29213;50.770;7.298;2023-02-01T03:32:43;101241.06;;;4.95;57.74
43621;BME280;29213;50.770;7.298;2023-02-01T03:35:44;101141.78;;;4.31;57.51
43621;BME280;29213;50.770;7.298;2023-02-01T03:38:20;101228.13;;;4.79;57.48
43621;BME280;29213;50.770;7.298;2023-02-01T03:40:51;101229.22;;;4.76;56.93
43621;BME280;29213;50.770;7.298;2023-02-01T03:43:18;101252.97;;;5.01;57.30
43621;BME280;29213;50.770;7.298;2023-02-01T03:45:50;101213.38;;;4.76;57.13
43621;BME280;29213;50.770;7.298;2023-02-01T03:48:18;101210.94;;;4.73;56.98
43621;BME280;29213;50.770;7.298;2023-02-01T03:50:52;101221.06;;;4.79;56.49
43621;BME280;29213;50.770;7.298;2023-02-01T03:53:22;101205.34;;;4.65;57.10
43621;BME280;29213;50.770;7.298;2023-02-01T03:55:50;101115.78;;;4.13;57.10
43621;BME280;29213;50.770;7.298;2023-02-01T03:58:19;101255.88;;;4.85;57.69
43621;BME280;29213;50.770;7.298;2023-02-01T04:01:00;101189.66;;;4.50;57.35
43621;BME280;29213;50.770;7.298;2023-02-01T04:03:27;101242.84;;;4.94;57.20
43621;BME280;29213;50.770;7.298;2023-02-01T04:05:53;101196.31;;;4.56;56.75
43621;BME280;29213;50.770;7.298;2023-02-01T04:08:19;101242.34;;;4.89;57.06
43621;BME280;29213;50.770;7.298;2023-02-01T04:10:45;101246.06;;;4.87;56.70
43621;BME280;29213;50.770;7.298;2023-02-01T04:13:11;101248.75;;;4.74;57.23
43621;BME280;29213;50.770;7.298;2023-02-01T04:15:37;101159.09;;;4.09;57.36
43621;BME280;29213;50.770;7.298;2023-02-01T04:18:02;101212.53;;;4.50;57.51
43621;BME280;29213;50.770;7.298;2023-02-01T04:20:28;101173.34;;;4.19;56.90
43621;BME280;29213;50.770;7.298;2023-02-01T04:22:53;101188.19;;;4.33;57.57
43621;BME280;29213;50.770;7.298;2023-02-01T04:25:19;101159.75;;;4.12;57.02
43621;BME280;29213;50.770;7.298;2023-02-01T04:27:44;101172.09;;;4.12;57.09
43621;BME280;29213;50.770;7.298;2023-02-01T04:30:10;101241.66;;;4.48;56.97
43621;BME280;29213;50.770;7.298;2023-02-01T04:32:36;101215.09;;;4.38;57.59
43621;BME280;29213;50.770;7.298;2023-02-01T04:35:02;101126.13;;;3.77;57.38
43621;BME280;29213;50.770;7.298;2023-02-01T04:37:28;101243.56;;;4.46;57.00
43621;BME280;29213;50.770;7.298;2023-02-01T04:39:54;101235.03;;;4.42;57.74
43621;BME280;29213;50.770;7.298;2023-02-01T04:42:19;101252.91;;;4.52;57.76
43621;BME280;29213;50.770;7.298;2023-02-01T04:44:45;101204.78;;;4.22;57.47
43621;BME280;29213;50.770;7.298;2023-02-01T04:47:10;101161.56;;;4.12;57.64
43621;BME280;29213;50.770;7.298;2023-02-01T04:49:36;101248.53;;;4.64;57.62
43621;BME280;29213;50.770;7.298;2023-02-01T04:52:01;101230.91;;;4.38;57.88
43621;BME280;29213;50.770;7.298;2023-02-01T04:54:27;101201.38;;;4.33;57.47
43621;BME280;29213;50.770;7.298;2023-02-01T04:56:52;101246.03;;;4.62;57.36
43621;BME280;29213;50.770;7.298;2023-02-01T04:59:17;101189.06;;;4.21;57.64
43621;BME280;29213;50.770;7.298;2023-02-01T05:01:43;101218.88;;;4.34;57.57
43621;BME280;29213;50.770;7.298;2023-02-01T05:04:08;101144.78;;;4.00;57.99
43621;BME280;29213;50.770;7.298;2023-02-01T05:06:34;101065.53;;;3.64;57.64
43621;BME280;29213;50.770;7.298;2023-02-01T05:08:59;101176.81;;;4.33;57.29
43621;BME280;29213;50.770;7.298;2023-02-01T05:11:25;101165.72;;;4.40;57.40
43621;BME280;29213;50.770;7.298;2023-02-01T05:14:08;101063.34;;;3.71;57.31
43621;BME280;29213;50.770;7.298;2023-02-01T05:16:34;101125.50;;;4.12;56.96
43621;BME280;29213;50.770;7.298;2023-02-01T05:19:00;101131.31;;;3.92;57.30
43621;BME280;29213;50.770;7.298;2023-02-01T05:21:25;101187.06;;;4.11;57.50
43621;BME280;29213;50.770;7.298;2023-02-01T05:23:50;101220.28;;;4.27;57.78
43621;BME280;29213;50.770;7.298;2023-02-01T05:26:34;101193.28;;;4.10;57.29
43621;BME280;29213;50.770;7.298;2023-02-01T05:29:00;101222.09;;;4.13;57.18
43621;BME280;29213;50.770;7.298;2023-02-01T05:31:25;101235.38;;;4.25;57.47
43621;BME280;29213;50.770;7.298;2023-02-01T05:33:51;101151.56;;;3.65;57.04
43621;BME280;29213;50.770;7.298;2023-02-01T05:36:16;101225.69;;;4.12;57.40
43621;BME280;29213;50.770;7.298;2023-02-01T05:38:42;101163.47;;;3.84;57.02
43621;BME280;29213;50.770;7.298;2023-02-01T05:41:07;101143.00;;;3.74;57.03
43621;BME280;29213;50.770;7.298;2023-02-01T05:43:33;101100.97;;;3.47;56.80
43621;BME280;29213;50.770;7.298;2023-02-01T05:45:58;101172.63;;;3.91;56.95
43621;BME280;29213;50.770;7.298;2023-02-01T05:48:24;101253.94;;;4.23;57.13
43621;BME280;29213;50.770;7.298;2023-02-01T05:50:49;101186.13;;;3.86;56.84
43621;BME280;29213;50.770;7.298;2023-02-01T05:53:14;101175.47;;;3.62;56.88
43621;BME280;29213;50.770;7.298;2023-02-01T05:55:41;101181.06;;;3.70;57.01
43621;BME280;29213;50.770;7.298;2023-02-01T05:58:07;101212.88;;;4.06;56.67
43621;BME280;29213;50.770;7.298;2023-02-01T06:00:33;101216.28;;;3.95;56.44
43621;BME280;29213;50.770;7.298;2023-02-01T06:02:58;101057.59;;;2.86;57.06
43621;BME280;29213;50.770;7.298;2023-02-01T06:05:24;101219.97;;;3.93;57.38
43621;BME280;29213;50.770;7.298;2023-02-01T06:07:50;101239.16;;;4.21;56.93
43621;BME280;29213;50.770;7.298;2023-02-01T06:10:18;101249.28;;;4.14;56.52
43621;BME280;29213;50.770;7.298;2023-02-01T06:12:44;101198.66;;;3.83;56.25
43621;BME280;29213;50.770;7.298;2023-02-01T06:15:14;101259.63;;;4.30;56.01
43621;BME280;29213;50.770;7.298;2023-02-01T06:17:44;101244.09;;;4.25;56.23
43621;BME280;29213;50.770;7.298;2023-02-01T06:20:12;101179.16;;;3.72;56.24
43621;BME280;29213;50.770;7.298;2023-02-01T06:22:38;101155.31;;;3.48;56.38
43621;BME280;29213;50.770;7.298;2023-02-01T06:25:05;101242.13;;;4.16;56.61
43621;BME280;29213;50.770;7.298;2023-02-01T06:27:32;101233.88;;;4.21;56.83
43621;BME280;29213;50.770;7.298;2023-02-01T06:29:57;101227.13;;;4.16;55.56
43621;BME280;29213;50.770;7.298;2023-02-01T06:32:22;101196.47;;;3.89;56.50
43621;BME280;29213;50.770;7.298;2023-02-01T06:34:49;101190.88;;;3.81;56.29
43621;BME280;29213;50.770;7.298;2023-02-01T06:37:14;101231.25;;;4.21;56.76
43621;BME280;29213;50.770;7.298;2023-02-01T06:39:39;101074.94;;;3.29;55.85
43621;BME280;29213;50.770;7.298;2023-02-01T06:42:05;101151.31;;;3.55;55.81
43621;BME280;29213;50.770;7.298;2023-02-01T06:44:31;101250.03;;;4.03;56.42
43621;BME280;29213;50.770;7.298;2023-02-01T06:46:56;101247.38;;;4.03;56.47
43621;BME280;29213;50.770;7.298;2023-02-01T06:49:22;101166.72;;;3.61;56.33
43621;BME280;29213;50.770;7.298;2023-02-01T06:51:47;101192.34;;;3.72;56.95
43621;BME280;29213;50.770;7.298;2023-02-01T06:54:13;101249.06;;;4.04;56.83
43621;BME280;29213;50.770;7.298;2023-02-01T06:56:39;101122.88;;;3.47;56.58
43621;BME280;29213;50.770;7.298;2023-02-01T06:59:05;101225.03;;;3.96;56.01
43621;BME280;29213;50.770;7.298;2023-02-01T07:01:31;101194.66;;;3.77;56.28
43621;BME280;29213;50.770;7.298;2023-02-01T07:03:56;101177.25;;;3.74;56.44
43621;BME280;29213;50.770;7.298;2023-02-01T07:06:22;101254.66;;;4.25;55.89
43621;BME280;29213;50.770;7.298;2023-02-01T07:08:48;101262.03;;;4.20;56.04
43621;BME280;29213;50.770;7.298;2023-02-01T07:11:15;101279.66;;;4.20;56.89
43621;BME280;29213;50.770;7.298;2023-02-01T07:13:41;101248.25;;;4.04;56.59
43621;BME280;29213;50.770;7.298;2023-02-01T07:16:10;101115.34;;;3.15;56.75
43621;BME280;29213;50.770;7.298;2023-02-01T07:18:36;101288.63;;;4.17;56.65
43621;BME280;29213;50.770;7.298;2023-02-01T07:21:01;101277.66;;;4.23;56.42
43621;BME280;29213;50.770;7.298;2023-02-01T07:23:27;101293.47;;;4.10;57.11
43621;BME280;29213;50.770;7.298;2023-02-01T07:26:01;101283.53;;;4.14;56.95
43621;BME280;29213;50.770;7.298;2023-02-01T07:28:28;101223.75;;;3.75;56.39
43621;BME280;29213;50.770;7.298;2023-02-01T07:30:54;101274.44;;;3.92;56.79
43621;BME280;29213;50.770;7.298;2023-02-01T07:33:21;101300.53;;;4.49;61.92
43621;BME280;29213;50.770;7.298;2023-02-01T07:35:48;101210.44;;;4.42;62.59
43621;BME280;29213;50.770;7.298;2023-02-01T07:38:13;101307.34;;;5.41;61.00
43621;BME280;29213;50.770;7.298;2023-02-01T07:40:39;101313.91;;;5.35;57.90
43621;BME280;29213;50.770;7.298;2023-02-01T07:43:05;101214.03;;;4.54;56.41
43621;BME280;29213;50.770;7.298;2023-02-01T07:45:31;101317.72;;;5.06;55.69
43621;BME280;29213;50.770;7.298;2023-02-01T07:47:57;101319.75;;;4.77;55.57
43621;BME280;29213;50.770;7.298;2023-02-01T07:50:22;101239.88;;;4.23;56.03
43621;BME280;29213;50.770;7.298;2023-02-01T07:52:47;101290.94;;;4.48;55.96
43621;BME280;29213;50.770;7.298;2023-02-01T07:55:13;101257.63;;;4.21;56.38
43621;BME280;29213;50.770;7.298;2023-02-01T07:57:38;101209.50;;;3.91;56.12
43621;BME280;29213;50.770;7.298;2023-02-01T08:00:04;101254.13;;;4.33;56.24
43621;BME280;29213;50.770;7.298;2023-02-01T08:02:48;101277.34;;;4.28;56.17
43621;BME280;29213;50.770;7.298;2023-02-01T08:05:14;101270.50;;;4.12;56.67
43621;BME280;29213;50.770;7.298;2023-02-01T08:07:39;101229.75;;;3.78;56.19
43621;BME280;29213;50.770;7.298;2023-02-01T08:10:05;101283.66;;;4.25;56.46
43621;BME280;29213;50.770;7.298;2023-02-01T08:12:36;101275.34;;;4.19;56.05
43621;BME280;29213;50.770;7.298;2023-02-01T08:15:02;101269.84;;;3.96;56.58
43621;BME280;29213;50.770;7.298;2023-02-01T08:17:27;101309.28;;;4.10;56.66
43621;BME280;29213;50.770;7.298;2023-02-01T08:19:53;101247.78;;;3.84;56.45
43621;BME280;29213;50.770;7.298;2023-02-01T08:22:19;101183.97;;;3.53;56.49
43621;BME280;29213;50.770;7.298;2023-02-01T08:24:47;101259.41;;;3.94;56.66
43621;BME280;29213;50.770;7.298;2023-02-01T08:27:13;101231.50;;;3.64;56.40
43621;BME280;29213;50.770;7.298;2023-02-01T08:29:38;101234.69;;;3.82;56.27
43621;BME280;29213;50.770;7.298;2023-02-01T08:32:04;101187.56;;;3.52;56.57
43621;BME280;29213;50.770;7.298;2023-02-01T08:34:29;101280.69;;;4.04;56.10
43621;BME280;29213;50.770;7.298;2023-02-01T08:36:55;101277.75;;;3.96;56.62
43621;BME280;29213;50.770;7.298;2023-02-01T08:39:24;101252.28;;;3.69;56.54
43621;BME280;29213;50.770;7.298;2023-02-01T08:41:49;101248.38;;;3.74;56.22
43621;BME280;29213;50.770;7.298;2023-02-01T08:44:35;101316.66;;;4.05;56.72
43621;BME280;29213;50.770;7.298;2023-02-01T08:47:02;101329.31;;;4.13;57.04
43621;BME280;29213;50.770;7.298;2023-02-01T08:49:28;101274.88;;;3.86;56.93
43621;BME280;29213;50.770;7.298;2023-02-01T08:51:54;101295.84;;;3.87;56.59
43621;BME280;29213;50.770;7.298;2023-02-01T08:54:20;101338.81;;;4.15;57.27
43621;BME280;29213;50.770;7.298;2023-02-01T08:56:46;101269.59;;;3.86;56.97
43621;BME280;29213;50.770;7.298;2023-02-01T08:59:11;101288.41;;;3.54;56.65
43621;BME280;29213;50.770;7.298;2023-02-01T09:01:37;101305.94;;;3.81;57.10
43621;BME280;29213;50.770;7.298;2023-02-01T09:04:02;101324.97;;;3.99;56.75
43621;BME280;29213;50.770;7.298;2023-02-01T09:06:28;101318.44;;;3.92;56.87
43621;BME280;29213;50.770;7.298;2023-02-01T09:08:53;101292.50;;;3.85;56.67
43621;BME280;29213;50.770;7.298;2023-02-01T09:11:18;101296.72;;;3.88;56.70
43621;BME280;29213;50.770;7.298;2023-02-01T09:13:47;101362.88;;;4.37;56.59
43621;BME280;29213;50.770;7.298;2023-02-01T09:16:13;101312.44;;;4.15;56.07
43621;BME280;29213;50.770;7.298;2023-02-01T09:18:39;101345.91;;;4.41;56.53
43621;BME280;29213;50.770;7.298;2023-02-01T09:21:06;101288.53;;;4.19;56.10
43621;BME280;29213;50.770;7.298;2023-02-01T09:23:32;101348.50;;;4.68;55.97
43621;BME280;29213;50.770;7.298;2023-02-01T09:26:03;101347.13;;;4.76;56.15
43621;BME280;29213;50.770;7.298;2023-02-01T09:28:29;101349.22;;;4.71;55.65
43621;BME280;29213;50.770;7.298;2023-02-01T09:30:56;101351.97;;;4.82;56.42
43621;BME280;29213;50.770;7.298;2023-02-01T09:33:22;101348.06;;;4.88;55.65
43621;BME280;29213;50.770;7.298;2023-02-01T09:35:49;101285.19;;;4.55;55.36
43621;BME280;29213;50.770;7.298;2023-02-01T09:38:14;101289.38;;;4.45;55.10
43621;BME280;29213;50.770;7.298;2023-02-01T09:40:43;101303.91;;;4.51;55.34
43621;BME280;29213;50.770;7.298;2023-02-01T09:48:32;101296.97;;;4.50;55.46
43621;BME280;29213;50.770;7.298;2023-02-01T09:51:03;101291.69;;;4.37;55.33
43621;BME280;29213;50.770;7.298;2023-02-01T09:53:34;101339.72;;;4.68;55.81
43621;BME280;29213;50.770;7.298;2023-02-01T09:56:06;101350.75;;;5.12;61.62
43621;BME280;29213;50.770;7.298;2023-02-01T09:58:39;101264.97;;;4.67;55.01
43621;BME280;29213;50.770;7.298;2023-02-01T10:01:19;101311.72;;;4.91;55.10
43621;BME280;29213;50.770;7.298;2023-02-01T10:03:45;101264.56;;;4.22;55.56
43621;BME280;29213;50.770;7.298;2023-02-01T10:12:26;101347.00;;;4.77;55.90
43621;BME280;29213;50.770;7.298;2023-02-01T10:15:15;101344.38;;;4.77;55.72
43621;BME280;29213;50.770;7.298;2023-02-01T10:26:01;101286.84;;;4.43;56.03
43621;BME280;29213;50.770;7.298;2023-02-01T10:28:32;101304.75;;;4.38;55.82
43621;BME280;29213;50.770;7.298;2023-02-01T10:31:00;101281.78;;;4.27;55.67
43621;BME280;29213;50.770;7.298;2023-02-01T10:33:33;101318.19;;;4.61;55.96
43621;BME280;29213;50.770;7.298;2023-02-01T10:38:38;101311.75;;;4.78;55.65
43621;BME280;29213;50.770;7.298;2023-02-01T10:41:12;101316.59;;;4.85;54.70
43621;BME280;29213;50.770;7.298;2023-02-01T10:43:39;101259.63;;;4.56;55.30
43621;BME280;29213;50.770;7.298;2023-02-01T10:46:06;101316.06;;;4.79;54.87
43621;BME280;29213;50.770;7.298;2023-02-01T10:48:31;101244.97;;;4.26;54.83
43621;BME280;29213;50.770;7.298;2023-02-01T10:51:06;101260.69;;;4.27;55.38
43621;BME280;29213;50.770;7.298;2023-02-01T10:53:46;101316.94;;;4.80;54.91
43621;BME280;29213;50.770;7.298;2023-02-01T10:56:22;101314.28;;;4.80;55.07
43621;BME280;29213;50.770;7.298;2023-02-01T10:58:48;101291.91;;;4.73;54.95
43621;BME280;29213;50.770;7.298;2023-02-01T11:01:22;101248.53;;;4.64;54.73
43621;BME280;29213;50.770;7.298;2023-02-01T11:03:55;101239.88;;;4.75;54.22
43621;BME280;29213;50.770;7.298;2023-02-01T11:06:30;101280.53;;;5.34;54.41
43621;BME280;29213;50.770;7.298;2023-02-01T11:11:52;101199.53;;;4.73;53.75
43621;BME280;29213;50.770;7.298;2023-02-01T11:16:56;101280.22;;;5.39;53.43
43621;BME280;29213;50.770;7.298;2023-02-01T11:19:22;101206.34;;;4.88;53.81
43621;BME280;29213;50.770;7.298;2023-02-01T11:21:52;101221.63;;;4.96;53.52
43621;BME280;29213;50.770;7.298;2023-02-01T11:24:27;101222.09;;;5.14;53.38
43621;BME280;29213;50.770;7.298;2023-02-01T11:26:59;101289.56;;;5.43;53.54
43621;BME280;29213;50.770;7.298;2023-02-01T11:29:26;101273.13;;;5.39;53.09
43621;BME280;29213;50.770;7.298;2023-02-01T11:31:59;101253.25;;;5.22;52.66
43621;BME280;29213;50.770;7.298;2023-02-01T11:34:36;101248.47;;;5.27;52.70
43621;BME280;29213;50.770;7.298;2023-02-01T11:37:03;101214.56;;;4.97;52.39
43621;BME280;29213;50.770;7.298;2023-02-01T11:39:31;101282.44;;;5.32;52.83
43621;BME280;29213;50.770;7.298;2023-02-01T11:42:15;101235.75;;;5.08;53.12
43621;BME280;29213;50.770;7.298;2023-02-01T11:44:42;101241.38;;;5.28;53.38
43621;BME280;29213;50.770;7.298;2023-02-01T11:47:26;101264.91;;;5.55;52.79
43621;BME280;29213;50.770;7.298;2023-02-01T11:49:57;101249.28;;;5.52;52.88
43621;BME280;29213;50.770;7.298;2023-02-01T11:52:57;101266.56;;;5.45;53.27
43621;BME280;29213;50.770;7.298;2023-02-01T11:58:26;101231.66;;;5.28;52.57
43621;BME280;29213;50.770;7.298;2023-02-01T12:01:16;101251.66;;;5.44;52.23
43621;BME280;29213;50.770;7.298;2023-02-01T12:04:07;101261.81;;;5.61;53.00
43621;BME280;29213;50.770;7.298;2023-02-01T12:06:53;101260.66;;;5.77;52.92
43621;BME280;29213;50.770;7.298;2023-02-01T12:12:12;101250.28;;;5.62;52.22
43621;BME280;29213;50.770;7.298;2023-02-01T12:25:40;101240.50;;;5.52;51.19
43621;BME280;29213;50.770;7.298;2023-02-01T12:28:15;101229.50;;;5.58;52.13
43621;BME280;29213;50.770;7.298;2023-02-01T12:31:15;101212.69;;;5.59;51.27
43621;BME280;29213;50.770;7.298;2023-02-01T12:33:56;101210.31;;;5.43;51.64
43621;BME280;29213;50.770;7.298;2023-02-01T12:44:53;101233.50;;;5.39;51.45
43621;BME280;29213;50.770;7.298;2023-02-01T12:47:29;101234.13;;;5.54;51.50
43621;BME280;29213;50.770;7.298;2023-02-01T12:50:05;101168.59;;;5.23;51.21
43621;BME280;29213;50.770;7.298;2023-02-01T12:52:43;101204.78;;;5.34;51.21
43621;BME280;29213;50.770;7.298;2023-02-01T12:55:36;101238.44;;;5.44;51.09
43621;BME280;29213;50.770;7.298;2023-02-01T12:58:14;101185.69;;;5.06;51.16
43621;BME280;29213;50.770;7.298;2023-02-01T13:01:15;101226.41;;;5.40;51.29
43621;BME280;29213;50.770;7.298;2023-02-01T13:06:39;101224.94;;;5.35;51.16
43621;BME280;29213;50.770;7.298;2023-02-01T13:09:31;101213.09;;;5.41;51.20
43621;BME280;29213;50.770;7.298;2023-02-01T13:12:19;101172.63;;;5.41;51.40
43621;BME280;29213;50.770;7.298;2023-02-01T13:15:02;101200.94;;;5.63;50.83
43621;BME280;29213;50.770;7.298;2023-02-01T13:17:31;101157.00;;;5.38;50.90
43621;BME280;29213;50.770;7.298;2023-02-01T13:20:03;101194.28;;;5.57;50.75
43621;BME280;29213;50.770;7.298;2023-02-01T13:22:47;101191.88;;;5.54;50.97
43621;BME280;29213;50.770;7.298;2023-02-01T13:25:23;101167.72;;;5.47;50.98
43621;BME280;29213;50.770;7.298;2023-02-01T13:27:54;101173.53;;;5.64;51.09
43621;BME280;29213;50.770;7.298;2023-02-01T13:30:29;101121.28;;;5.20;51.07
43621;BME280;29213;50.770;7.298;2023-02-01T13:33:06;101170.13;;;5.51;51.13
43621;BME280;29213;50.770;7.298;2023-02-01T13:35:51;101174.19;;;5.43;52.13
43621;BME280;29213;50.770;7.298;2023-02-01T13:39:39;101174.91;;;5.45;51.67
43621;BME280;29213;50.770;7.298;2023-02-01T13:42:02;101172.75;;;5.51;51.82
43621;BME280;29213;50.770;7.298;2023-02-01T13:44:34;101153.88;;;5.32;52.82
43621;BME280;29213;50.770;7.298;2023-02-01T13:47:08;101166.25;;;5.43;53.43
43621;BME280;29213;50.770;7.298;2023-02-01T13:49:39;101103.63;;;5.21;53.15
43621;BME280;29213;50.770;7.298;2023-02-01T13:52:38;101162.31;;;5.49;53.39
43621;BME280;29213;50.770;7.298;2023-02-01T13:57:49;101094.94;;;4.96;54.25
43621;BME280;29213;50.770;7.298;2023-02-01T14:00:32;101098.88;;;4.90;54.30
43621;BME280;29213;50.770;7.298;2023-02-01T14:34:50;101153.16;;;5.42;54.16
43621;BME280;29213;50.770;7.298;2023-02-01T14:55:40;101151.84;;;5.36;53.56
43621;BME280;29213;50.770;7.298;2023-02-01T14:58:15;101100.84;;;5.11;53.74
43621;BME280;29213;50.770;7.298;2023-02-01T15:01:05;101166.25;;;5.43;53.19
43621;BME280;29213;50.770;7.298;2023-02-01T15:03:57;101139.69;;;5.22;53.30
43621;BME280;29213;50.770;7.298;2023-02-01T15:09:04;101097.59;;;5.07;53.61
43621;BME280;29213;50.770;7.298;2023-02-01T15:11:53;101177.50;;;5.70;53.18
43621;BME280;29213;50.770;7.298;2023-02-01T15:14:19;101140.94;;;5.52;52.73
43621;BME280;29213;50.770;7.298;2023-02-01T15:16:45;101175.69;;;5.70;52.90
43621;BME280;29213;50.770;7.298;2023-02-01T15:19:21;101177.28;;;5.84;52.75
43621;BME280;29213;50.770;7.298;2023-02-01T15:21:51;101181.69;;;5.61;52.48
43621;BME280;29213;50.770;7.298;2023-02-01T15:24:30;101121.97;;;5.11;52.68
43621;BME280;29213;50.770;7.298;2023-02-01T15:27:03;101155.69;;;5.43;52.39
43621;BME280;29213;50.770;7.298;2023-02-01T15:29:30;101179.16;;;5.59;52.75
43621;BME280;29213;50.770;7.298;2023-02-01T15:31:58;101093.69;;;5.13;51.92
43621;BME280;29213;50.770;7.298;2023-02-01T15:34:45;101183.84;;;5.67;52.13
43621;BME280;29213;50.770;7.298;2023-02-01T15:37:13;101191.31;;;5.73;52.22